Time;durP1;ratioP1;P1;durP2;ratioP2;P2;SDS_P1;SDS_P2;PMS_P1;PMS_P2;Temp;Humidity;BMP_temperature;BMP_pressure;BME280_temperature;BME280_humidity;BME280_pressure;Samples;Min_cycle;Max_cycle;Signal;HPM_P1;HPM_P2
2021/07/09 00:02:17;;;;;;;23.42;11.48;;;;;;;17.18;100.00;101737.41;6264645;28;20517;-79
2021/07/09 00:05:18;;;;;;;22.10;9.63;;;;;;;17.14;100.00;101743.84;6249949;28;20049;-79
2021/07/09 00:08:20;;;;;;;21.48;8.80;;;;;;;16.99;100.00;101735.09;6249943;28;20575;-79
2021/07/09 00:11:22;;;;;;;16.95;9.52;;;;;;;17.04;100.00;101730.31;6249806;28;20041;-79
2021/07/09 00:14:26;;;;;;;24.10;8.82;;;;;;;17.13;100.00;101729.72;6249620;28;20053;-79
2021/07/09 00:17:29;;;;;;;13.18;8.02;;;;;;;17.00;100.00;101731.47;6249612;28;20048;-79
2021/07/09 00:20:31;;;;;;;16.60;8.52;;;;;;;16.97;100.00;101736.97;6249319;28;20048;-80
2021/07/09 00:23:33;;;;;;;25.13;9.50;;;;;;;16.99;100.00;101735.09;6249495;28;20056;-79
2021/07/09 00:26:35;;;;;;;21.05;8.55;;;;;;;17.02;100.00;101728.72;6249448;28;20052;-79
2021/07/09 00:29:37;;;;;;;15.57;8.45;;;;;;;16.96;100.00;101728.16;6249160;28;20064;-79
2021/07/09 00:32:39;;;;;;;10.95;7.82;;;;;;;16.97;100.00;101731.66;6249377;28;20061;-79
2021/07/09 00:35:40;;;;;;;11.95;7.18;;;;;;;16.96;100.00;101727.31;6249293;28;20053;-79
2021/07/09 00:38:41;;;;;;;14.10;8.27;;;;;;;16.88;100.00;101737.56;6249105;28;20050;-79
2021/07/09 00:41:43;;;;;;;16.15;8.63;;;;;;;16.93;100.00;101736.31;6249007;28;20512;-79
2021/07/09 00:44:46;;;;;;;18.25;8.05;;;;;;;16.92;100.00;101729.28;6249042;28;20057;-79
2021/07/09 00:47:48;;;;;;;19.13;8.27;;;;;;;16.95;100.00;101725.59;6248596;28;20045;-79
2021/07/09 00:50:49;;;;;;;22.55;8.32;;;;;;;16.98;100.00;101720.94;6249097;28;20049;-79
2021/07/09 00:53:51;;;;;;;26.02;10.75;;;;;;;17.05;100.00;101726.72;6248584;28;20508;-79
2021/07/09 00:56:52;;;;;;;26.92;9.98;;;;;;;17.05;100.00;101732.03;6249039;28;20053;-79
2021/07/09 00:59:55;;;;;;;20.98;10.25;;;;;;;17.03;100.00;101725.09;6249069;28;20050;-79
2021/07/09 01:02:57;;;;;;;16.65;9.50;;;;;;;17.05;100.00;101721.41;6248253;28;20053;-79
2021/07/09 01:05:59;;;;;;;15.80;9.55;;;;;;;17.09;100.00;101725.56;6254039;28;20060;-80
2021/07/09 01:09:00;;;;;;;18.33;10.27;;;;;;;17.11;100.00;101730.75;6258676;28;20055;-81
2021/07/09 01:12:03;;;;;;;17.73;9.98;;;;;;;17.11;100.00;101723.63;6259483;28;20060;-80
2021/07/09 01:15:08;;;;;;;17.52;9.43;;;;;;;17.11;100.00;101722.78;6259441;28;20050;-80
2021/07/09 01:18:09;;;;;;;17.45;9.70;;;;;;;17.10;100.00;101727.25;6257821;28;20056;-80
2021/07/09 01:21:11;;;;;;;21.80;9.40;;;;;;;17.05;100.00;101718.75;6258301;28;20041;-80
2021/07/09 01:24:14;;;;;;;20.95;9.82;;;;;;;17.05;100.00;101724.06;6250360;28;20053;-79
2021/07/09 01:27:17;;;;;;;18.08;9.30;;;;;;;17.01;100.00;101721.69;6247918;28;20049;-79
2021/07/09 01:30:21;;;;;;;15.27;8.88;;;;;;;16.98;100.00;101717.41;6247678;28;20068;-79
2021/07/09 01:33:22;;;;;;;16.23;9.23;;;;;;;16.96;100.00;101717.53;6248110;28;20049;-79
2021/07/09 01:36:24;;;;;;;15.98;8.02;;;;;;;16.86;100.00;101719.09;6248198;28;20056;-79
2021/07/09 01:39:27;;;;;;;17.67;7.22;;;;;;;16.79;100.00;101714.25;6248022;28;20056;-79
2021/07/09 01:42:28;;;;;;;12.65;7.97;;;;;;;16.82;100.00;101714.06;6247524;28;20072;-79
2021/07/09 01:45:31;;;;;;;14.30;9.38;;;;;;;16.87;100.00;101714.63;6247894;28;20501;-79
2021/07/09 01:48:32;;;;;;;21.13;9.50;;;;;;;16.85;100.00;101717.38;6248037;28;20045;-79
2021/07/09 01:51:34;;;;;;;19.58;10.07;;;;;;;16.84;100.00;101726.28;6247816;28;20057;-78
2021/07/09 01:54:38;;;;;;;17.38;8.73;;;;;;;16.96;100.00;101716.69;6247927;28;20050;-78
2021/07/09 01:57:40;;;;;;;20.23;10.40;;;;;;;16.87;100.00;101727.91;6248101;28;20049;-79
2021/07/09 02:00:41;;;;;;;17.23;9.75;;;;;;;16.78;100.00;101726.69;6247682;28;20405;-79
2021/07/09 02:03:43;;;;;;;26.70;10.75;;;;;;;16.79;100.00;101731.03;6247222;28;20056;-79
2021/07/09 02:06:44;;;;;;;19.75;8.75;;;;;;;16.86;100.00;101728.84;6248239;28;20049;-79
2021/07/09 02:09:48;;;;;;;15.75;9.43;;;;;;;16.77;100.00;101732.94;6247998;28;20042;-79
2021/07/09 02:12:54;;;;;;;11.32;8.93;;;;;;;16.87;100.00;101722.59;6247657;28;20524;-78
2021/07/09 02:15:55;;;;;;;20.88;11.23;;;;;;;16.77;100.00;101730.28;6247879;28;20096;-79
2021/07/09 02:18:56;;;;;;;31.15;11.98;;;;;;;16.76;100.00;101739.22;6247675;28;20057;-80
2021/07/09 02:22:01;;;;;;;24.60;11.57;;;;;;;16.76;100.00;101735.69;6250748;28;20057;-79
2021/07/09 02:25:06;;;;;;;22.85;12.02;;;;;;;16.67;100.00;101732.66;6251812;28;20052;-80
2021/07/09 02:28:08;;;;;;;33.20;15.23;;;;;;;16.70;100.00;101731.59;6251190;28;20523;-79
2021/07/09 02:31:09;;;;;;;29.13;16.15;;;;;;;16.77;100.00;101737.41;6251595;28;20042;-80
2021/07/09 02:34:10;;;;;;;24.17;16.42;;;;;;;16.79;100.00;101736.34;6251406;28;20049;-79
2021/07/09 02:37:12;;;;;;;23.55;15.27;;;;;;;16.78;100.00;101733.78;6251468;28;20056;-78
2021/07/09 02:40:17;;;;;;;34.45;19.33;;;;;;;16.71;100.00;101728.84;6251705;28;20049;-77
2021/07/09 02:43:18;;;;;;;30.83;18.60;;;;;;;16.70;100.00;101723.63;6251315;28;20061;-79
2021/07/09 02:46:20;;;;;;;35.67;21.05;;;;;;;16.73;100.00;101723.47;6251683;28;20052;-79
2021/07/09 02:49:23;;;;;;;36.40;19.23;;;;;;;16.69;100.00;101717.47;6251202;28;20052;-78
2021/07/09 02:52:24;;;;;;;33.55;19.73;;;;;;;16.62;100.00;101720.59;6251362;28;20049;-77
2021/07/09 02:55:28;;;;;;;41.80;21.80;;;;;;;16.63;100.00;101720.50;6251247;28;20046;-79
2021/07/09 02:58:30;;;;;;;32.13;21.75;;;;;;;16.67;100.00;101715.88;6250840;28;20094;-79
2021/07/09 03:01:31;;;;;;;29.90;20.17;;;;;;;16.69;100.00;101719.28;6250751;28;20050;-80
2021/07/09 03:04:33;;;;;;;37.55;22.05;;;;;;;16.64;100.00;101722.22;6250640;28;20049;-77
2021/07/09 03:07:34;;;;;;;37.70;21.58;;;;;;;16.62;100.00;101724.13;6250780;28;20493;-77
2021/07/09 03:10:37;;;;;;;36.17;20.52;;;;;;;16.76;100.00;101725.06;6250786;28;20128;-77
2021/07/09 03:13:38;;;;;;;37.50;21.63;;;;;;;16.60;100.00;101723.34;6251230;28;20412;-79
2021/07/09 03:16:40;;;;;;;39.55;22.48;;;;;;;16.64;100.00;101722.22;6250300;28;20049;-78
2021/07/09 03:19:41;;;;;;;39.08;22.10;;;;;;;16.62;100.00;101718.81;6250549;28;20049;-77
2021/07/09 03:22:42;;;;;;;42.42;22.70;;;;;;;16.65;100.00;101712.44;6246955;28;20049;-78
2021/07/09 03:25:45;;;;;;;37.60;19.20;;;;;;;16.68;100.00;101705.16;6250586;28;20049;-77
2021/07/09 03:28:46;;;;;;;56.67;20.73;;;;;;;16.63;100.00;101717.00;6250072;28;20480;-78
2021/07/09 03:31:48;;;;;;;34.95;19.77;;;;;;;16.61;100.00;101709.13;6249811;28;20049;-77
2021/07/09 03:34:49;;;;;;;29.08;16.92;;;;;;;16.63;100.00;101707.25;6243867;28;20050;-78
2021/07/09 03:37:50;;;;;;;44.42;18.33;;;;;;;16.65;100.00;101705.34;6233678;28;20046;-79
2021/07/09 03:40:53;;;;;;;44.65;19.40;;;;;;;16.53;100.00;101699.94;6236641;28;20041;-77
2021/07/09 03:43:54;;;;;;;47.38;18.30;;;;;;;16.49;100.00;101689.53;6238580;28;20057;-77
2021/07/09 03:46:56;;;;;;;31.27;18.17;;;;;;;16.48;100.00;101692.28;6238426;28;20057;-77
2021/07/09 03:49:57;;;;;;;37.35;20.02;;;;;;;16.49;100.00;101691.34;6235972;28;20053;-77
2021/07/09 03:52:59;;;;;;;36.45;18.08;;;;;;;16.56;100.00;101681.19;6235659;28;20052;-77
2021/07/09 03:56:02;;;;;;;29.95;19.95;;;;;;;16.51;100.00;101686.78;6238742;28;20408;-78
2021/07/09 03:59:03;;;;;;;32.63;18.52;;;;;;;16.57;100.00;101677.56;6235789;28;20052;-77
2021/07/09 04:02:04;;;;;;;40.78;19.08;;;;;;;16.52;100.00;101663.75;6236414;28;20048;-78
2021/07/09 04:05:07;;;;;;;36.85;18.42;;;;;;;16.51;100.00;101652.28;6235640;28;20042;-77
2021/07/09 04:08:08;;;;;;;36.20;20.20;;;;;;;16.55;100.00;101659.09;6231237;28;20048;-77
2021/07/09 04:11:11;;;;;;;39.75;18.88;;;;;;;16.63;100.00;101663.94;6235455;28;20045;-78
2021/07/09 04:14:13;;;;;;;35.33;18.88;;;;;;;16.64;100.00;101673.59;6234967;28;20497;-78
2021/07/09 04:17:14;;;;;;;24.33;16.05;;;;;;;16.68;100.00;101669.78;6237245;28;20054;-77
2021/07/09 04:20:16;;;;;;;24.60;15.70;;;;;;;16.74;100.00;101669.41;6237893;28;20045;-77
2021/07/09 04:23:17;;;;;;;28.50;16.70;;;;;;;16.85;100.00;101682.00;6248658;28;20057;-77
2021/07/09 04:26:20;;;;;;;28.45;16.45;;;;;;;16.63;100.00;101680.72;6240176;28;20046;-78
2021/07/09 04:29:21;;;;;;;35.13;21.48;;;;;;;16.60;100.00;101688.00;6236691;28;20046;-77
2021/07/09 04:32:30;;;;;;;49.17;22.35;;;;;;;16.63;100.00;101688.66;6237693;28;20535;-79
2021/07/09 04:35:32;;;;;;;;;;;;;;;16.56;100.00;101690.00;6238139;28;20045;-77
2021/07/09 04:38:33;;;;;;;36.72;20.20;;;;;;;16.67;100.00;101682.22;6232482;28;19928;-77
2021/07/09 04:41:36;;;;;;;34.38;20.45;;;;;;;16.82;100.00;101682.22;6236714;28;20048;-77
2021/07/09 04:44:38;;;;;;;30.40;19.70;;;;;;;16.66;100.00;101685.78;6231256;28;20049;-77
2021/07/09 04:47:39;;;;;;;43.83;22.80;;;;;;;16.56;100.00;101687.34;6240126;28;20049;-77
2021/07/09 04:50:40;;;;;;;38.28;22.45;;;;;;;16.63;100.00;101677.19;6234362;28;20037;-77
2021/07/09 04:53:42;;;;;;;49.47;23.73;;;;;;;16.61;100.00;101682.59;6234470;28;20048;-77
2021/07/09 04:56:45;;;;;;;37.20;22.17;;;;;;;16.61;100.00;101679.94;6235896;28;20045;-78
2021/07/09 04:59:46;;;;;;;34.78;21.42;;;;;;;16.61;100.00;101679.94;6235471;28;20046;-77
2021/07/09 05:02:47;;;;;;;40.17;21.65;;;;;;;16.63;100.00;101683.34;6235376;28;20049;-77
2021/07/09 05:05:49;;;;;;;30.02;21.38;;;;;;;16.61;100.00;101687.03;6235796;28;20045;-77
2021/07/09 05:08:50;;;;;;;37.10;23.85;;;;;;;16.64;100.00;101682.41;6239609;28;20041;-78
2021/07/09 05:11:53;;;;;;;47.20;26.15;;;;;;;16.61;100.00;101681.75;6236981;28;20045;-78
2021/07/09 05:14:54;;;;;;;38.17;23.98;;;;;;;16.67;100.00;101686.69;6234180;28;20045;-77
2021/07/09 05:17:55;;;;;;;40.58;25.23;;;;;;;16.65;100.00;101691.22;6238688;28;20041;-79
2021/07/09 05:20:57;;;;;;;43.30;23.95;;;;;;;16.66;100.00;101692.91;6236164;28;20045;-77
2021/07/09 05:23:59;;;;;;;41.05;26.00;;;;;;;16.68;100.00;101706.97;6231843;28;20050;-78
2021/07/09 05:27:02;;;;;;;37.75;26.48;;;;;;;16.65;100.00;101709.78;6233307;28;20082;-79
2021/07/09 05:30:05;;;;;;;35.22;25.35;;;;;;;16.67;100.00;101708.75;6280461;22;20429;-74
2021/07/09 05:33:06;;;;;;;39.80;25.58;;;;;;;16.78;100.00;101702.78;6260905;28;20416;-77
2021/07/09 05:36:07;;;;;;;31.63;22.05;;;;;;;16.80;100.00;101706.19;6259413;28;20068;-76
2021/07/09 05:39:10;;;;;;;38.42;23.55;;;;;;;16.71;100.00;101690.81;6241196;28;20050;-77
2021/07/09 05:42:13;;;;;;;32.00;24.25;;;;;;;16.68;100.00;101694.53;6234123;28;20052;-77
2021/07/09 05:45:14;;;;;;;31.73;21.08;;;;;;;16.94;100.00;101684.03;6238006;28;20046;-74
2021/07/09 05:48:16;;;;;;;35.03;20.90;;;;;;;16.84;100.00;101689.09;6246030;28;20521;-73
2021/07/09 05:51:17;;;;;;;30.08;20.40;;;;;;;16.80;100.00;101684.94;6240598;28;20119;-74
2021/07/09 05:54:19;;;;;;;28.27;19.10;;;;;;;16.79;100.00;101691.22;6233365;28;20056;-75
2021/07/09 05:57:22;;;;;;;25.95;18.23;;;;;;;16.84;100.00;101680.28;6226726;28;20504;-74
2021/07/09 06:00:23;;;;;;;27.98;18.33;;;;;;;16.78;100.00;101681.56;6222262;28;20045;-74
2021/07/09 06:03:24;;;;;;;20.98;15.95;;;;;;;16.94;100.00;101678.75;6222258;28;20060;-74
2021/07/09 06:06:26;;;;;;;27.67;16.13;;;;;;;16.95;100.00;101678.66;6222293;28;20049;-73
2021/07/09 06:09:29;;;;;;;30.58;16.20;;;;;;;16.79;100.00;101677.09;6222505;28;20049;-74
2021/07/09 06:12:32;;;;;;;27.63;15.73;;;;;;;16.95;100.00;101681.31;6222436;28;20050;-75
2021/07/09 06:15:34;;;;;;;23.10;16.00;;;;;;;16.86;100.00;101681.91;6242516;28;20038;-74
2021/07/09 06:18:35;;;;;;;23.95;15.70;;;;;;;16.91;100.00;101674.50;6247381;28;20041;-75
2021/07/09 06:21:36;;;;;;;20.23;14.10;;;;;;;17.01;100.00;101671.25;6246710;28;20489;-75
2021/07/09 06:24:37;;;;;;;18.92;13.70;;;;;;;17.04;100.00;101679.88;6246517;28;20052;-75
2021/07/09 06:27:41;;;;;;;18.98;13.98;;;;;;;16.91;100.00;101678.97;6246792;28;20397;-75
2021/07/09 06:30:42;;;;;;;25.42;15.05;;;;;;;16.95;100.00;101686.63;6246698;28;20057;-74
2021/07/09 06:33:43;;;;;;;29.00;16.42;;;;;;;16.90;100.00;101683.41;6246009;28;20045;-75
2021/07/09 06:36:45;;;;;;;24.50;16.15;;;;;;;16.98;100.00;101690.88;6243196;28;20057;-75
2021/07/09 06:39:46;;;;;;;24.25;14.90;;;;;;;16.98;100.00;101688.22;6246269;28;20390;-74
2021/07/09 06:42:49;;;;;;;26.45;15.63;;;;;;;17.03;100.00;101699.38;6233964;28;20042;-76
2021/07/09 06:45:50;;;;;;;20.33;15.38;;;;;;;16.97;100.00;101705.09;6233353;28;20780;-77
2021/07/09 06:48:52;;;;;;;22.45;15.88;;;;;;;16.96;100.00;101706.91;6236627;28;20500;-76
2021/07/09 06:51:53;;;;;;;26.88;15.82;;;;;;;17.03;100.00;101704.69;6224476;28;20508;-77
2021/07/09 06:54:54;;;;;;;24.63;15.10;;;;;;;17.10;100.00;101703.34;6223481;28;20057;-76
2021/07/09 06:57:57;;;;;;;20.60;16.15;;;;;;;17.04;100.00;101713.53;6237686;28;20061;-76
2021/07/09 07:00:59;;;;;;;19.77;14.10;;;;;;;17.12;100.00;101705.91;6246054;28;20046;-76
2021/07/09 07:04:00;;;;;;;20.73;14.45;;;;;;;17.11;100.00;101704.19;6245945;28;20045;-76
2021/07/09 07:07:01;;;;;;;24.35;15.23;;;;;;;17.09;100.00;101714.09;6248077;28;20053;-76
2021/07/09 07:10:03;;;;;;;21.15;14.88;;;;;;;17.08;100.00;101710.59;6250282;28;20064;-76
2021/07/09 07:13:06;;;;;;;25.85;16.48;;;;;;;17.10;100.00;101719.28;6249833;28;20068;-76
2021/07/09 07:16:08;;;;;;;30.23;16.05;;;;;;;17.22;100.00;101717.66;6249916;28;20057;-76
2021/07/09 07:19:09;;;;;;;24.23;13.90;;;;;;;17.34;100.00;101716.81;6247769;28;20091;-76
2021/07/09 07:22:11;;;;;;;17.50;13.52;;;;;;;17.24;100.00;101718.38;6248847;28;20052;-76
2021/07/09 07:25:13;;;;;;;20.52;13.30;;;;;;;17.27;100.00;101712.88;6247857;28;20080;-76
2021/07/09 07:28:17;;;;;;;16.25;13.98;;;;;;;17.24;100.00;101718.38;6247524;28;20054;-76
2021/07/09 07:31:18;;;;;;;19.88;14.00;;;;;;;17.14;100.00;101712.81;6248615;28;20048;-76
2021/07/09 07:34:20;;;;;;;22.60;15.55;;;;;;;17.18;100.00;101717.00;6249315;28;20069;-76
2021/07/09 07:37:22;;;;;;;22.33;14.55;;;;;;;17.16;100.00;101723.34;6249799;28;20045;-76
2021/07/09 07:40:24;;;;;;;16.50;13.73;;;;;;;17.30;100.00;101723.28;6249344;28;20052;-76
2021/07/09 07:43:26;;;;;;;21.17;13.55;;;;;;;17.36;100.00;101725.56;6229623;28;20056;-76
2021/07/09 07:46:28;;;;;;;17.75;12.45;;;;;;;17.34;100.00;101726.59;6225006;28;20581;-77
2021/07/09 07:49:29;;;;;;;20.92;14.40;;;;;;;17.36;100.00;101730.03;6224706;28;20141;-76
2021/07/09 07:52:30;;;;;;;18.50;13.90;;;;;;;17.42;100.00;101734.91;6224402;28;20485;-76
2021/07/09 07:55:32;;;;;;;21.60;14.88;;;;;;;17.42;100.00;101734.91;6248396;28;20049;-77
2021/07/09 07:58:34;;;;;;;25.20;15.93;;;;;;;17.39;100.00;101729.78;6244335;28;20053;-76
2021/07/09 08:01:36;;;;;;;25.45;16.92;;;;;;;17.36;100.00;101733.53;6223279;28;20049;-76
2021/07/09 08:04:37;;;;;;;28.98;19.73;;;;;;;17.39;100.00;101740.44;6224368;28;20046;-76
2021/07/09 08:07:38;;;;;;;30.73;20.52;;;;;;;17.41;100.00;101743.84;6224294;28;20080;-76
2021/07/09 08:10:40;;;;;;;29.77;19.48;;;;;;;17.47;100.00;101746.09;6224282;28;20056;-76
2021/07/09 08:13:42;;;;;;;27.45;20.13;;;;;;;17.48;100.00;101739.81;6223936;28;20050;-76
2021/07/09 08:16:44;;;;;;;26.92;20.65;;;;;;;17.53;100.00;101736.84;6227435;28;20050;-76
2021/07/09 08:19:45;;;;;;;34.72;21.10;;;;;;;17.58;100.00;101742.75;6247022;28;20129;-76
2021/07/09 08:22:47;;;;;;;28.42;21.70;;;;;;;17.62;100.00;101741.56;6234008;28;20049;-76
2021/07/09 08:25:49;;;;;;;31.13;22.05;;;;;;;17.75;100.00;101738.00;6237571;28;20050;-75
2021/07/09 08:28:51;;;;;;;28.88;21.02;;;;;;;17.62;100.00;101734.47;6243395;28;20204;-75
2021/07/09 08:31:53;;;;;;;34.10;23.58;;;;;;;17.50;100.00;101741.44;6223545;28;20049;-71
2021/07/09 08:34:55;;;;;;;36.55;24.45;;;;;;;17.45;100.00;101735.56;6222415;28;20045;-73
2021/07/09 08:37:56;;;;;;;35.35;24.77;;;;;;;17.48;100.00;101738.00;6222981;28;20058;-73
2021/07/09 08:40:57;;;;;;;40.25;26.35;;;;;;;17.36;100.00;101730.88;6223292;28;20418;-74
2021/07/09 08:44:00;;;;;;;44.08;26.60;;;;;;;17.42;100.00;101737.56;6223582;28;20065;-74
2021/07/09 08:47:02;;;;;;;39.58;26.83;;;;;;;17.52;100.00;101728.03;6245395;28;20437;-74
2021/07/09 08:50:05;;;;;;;48.60;28.65;;;;;;;17.37;100.00;101726.41;6238409;28;20060;-75
2021/07/09 08:53:06;;;;;;;50.63;29.15;;;;;;;17.41;100.00;101726.09;6243704;28;20045;-75
2021/07/09 08:56:08;;;;;;;46.40;29.25;;;;;;;17.35;100.00;101730.94;6233517;28;20057;-76
2021/07/09 08:59:10;;;;;;;47.90;29.40;;;;;;;17.38;100.00;101728.94;6233944;28;20492;-75
2021/07/09 09:02:12;;;;;;;48.30;28.70;;;;;;;17.38;100.00;101723.63;6234370;28;20121;-75
2021/07/09 09:05:20;;;;;;;39.22;25.02;;;;;;;17.43;100.00;101726.00;6231669;28;20053;-75
2021/07/09 09:08:23;;;;;;;37.63;25.60;;;;;;;17.53;100.00;101720.91;6230672;28;20050;-75
2021/07/09 09:11:24;;;;;;;46.22;24.75;;;;;;;17.48;100.00;101722.06;6244191;28;20185;-75
2021/07/09 09:14:27;;;;;;;36.25;23.48;;;;;;;17.49;100.00;101721.13;6242624;28;20052;-75
2021/07/09 09:17:32;;;;;;;38.38;23.40;;;;;;;17.64;100.00;101716.59;6239927;28;20595;-73
2021/07/09 09:20:33;;;;;;;33.78;23.23;;;;;;;17.77;100.00;101718.44;6241252;28;20423;-75
2021/07/09 09:23:38;;;;;;;28.42;21.13;;;;;;;17.69;100.00;101711.81;6242041;28;20132;-75
2021/07/09 09:26:42;;;;;;;32.38;22.02;;;;;;;17.74;100.00;101712.38;6243560;28;20052;-75
2021/07/09 09:29:45;;;;;;;31.73;22.55;;;;;;;17.64;100.00;101711.25;6233060;28;20056;-75
2021/07/09 09:32:47;;;;;;;26.38;17.80;;;;;;;17.81;100.00;101715.47;6242825;28;20037;-75
2021/07/09 09:35:54;;;;;;;27.17;17.50;;;;;;;17.72;100.00;101713.41;6230313;28;20497;-75
2021/07/09 09:38:56;;;;;;;23.38;17.08;;;;;;;17.87;100.00;101709.72;6224649;28;20456;-75
2021/07/09 09:42:17;;;;;;;27.15;18.08;;;;;;;17.70;100.00;101707.34;6221987;28;20042;-74
2021/07/09 09:45:22;;;;;;;23.02;17.02;;;;;;;17.78;100.00;101707.69;6225723;28;20050;-75
2021/07/09 09:48:33;;;;;;;24.10;16.30;;;;;;;17.90;100.00;101703.38;6238350;28;20053;-75
2021/07/09 09:51:36;;;;;;;29.17;15.75;;;;;;;17.86;100.00;101707.19;6221848;28;20046;-75
2021/07/09 09:54:38;;;;;;;24.23;16.55;;;;;;;17.74;100.00;101701.72;6244477;28;20049;-75
2021/07/09 09:57:41;;;;;;;24.95;16.08;;;;;;;17.70;100.00;101704.66;6246131;28;20049;-75
2021/07/09 10:00:46;;;;;;;25.52;16.90;;;;;;;17.63;100.00;101703.41;6242179;28;20045;-75
2021/07/09 10:03:47;;;;;;;26.25;17.08;;;;;;;17.50;100.00;101714.00;6221038;28;20050;-75
2021/07/09 10:06:49;;;;;;;23.83;16.45;;;;;;;17.55;100.00;101705.72;6221572;28;20046;-74
2021/07/09 10:09:51;;;;;;;34.95;17.42;;;;;;;17.71;100.00;101706.38;6221360;28;20054;-75
2021/07/09 10:12:54;;;;;;;26.77;17.77;;;;;;;17.53;100.00;101700.50;6220618;28;20069;-76
2021/07/09 10:15:56;;;;;;;29.17;17.02;;;;;;;17.60;100.00;101703.59;6221437;28;20414;-75
2021/07/09 10:18:59;;;;;;;26.23;17.05;;;;;;;17.59;100.00;101713.38;6234671;28;20056;-75
2021/07/09 10:22:01;;;;;;;23.38;16.02;;;;;;;17.84;100.00;101703.75;6245817;28;20060;-75
2021/07/09 10:25:03;;;;;;;20.67;13.60;;;;;;;17.75;100.00;101697.25;6244907;28;20492;-76
2021/07/09 10:28:06;;;;;;;25.77;15.27;;;;;;;17.78;100.00;101701.53;6246177;28;20496;-74
2021/07/09 10:31:34;;;;;;;27.65;14.48;;;;;;;17.80;100.00;101697.78;6245368;28;20129;-75
2021/07/09 10:34:38;;;;;;;24.55;11.88;;;;;;;17.88;100.00;101699.94;6244532;28;20045;-75
2021/07/09 10:37:39;;;;;;;17.65;12.55;;;;;;;17.83;100.00;101702.06;6245966;28;20057;-75
2021/07/09 10:40:41;;;;;;;19.52;10.05;;;;;;;18.25;100.00;101703.53;6246250;28;20080;-75
2021/07/09 10:43:43;;;;;;;16.30;10.63;;;;;;;18.03;100.00;101703.34;6249657;28;20053;-75
2021/07/09 10:46:47;;;;;;;22.13;11.20;;;;;;;18.07;100.00;101696.84;6250396;28;20057;-75
2021/07/09 10:49:58;;;;;;;22.13;12.23;;;;;;;17.99;100.00;101695.59;6250391;28;20137;-75
2021/07/09 10:53:00;;;;;;;21.40;12.18;;;;;;;18.14;100.00;101700.81;6249668;28;20048;-75
2021/07/09 10:56:04;;;;;;;22.38;10.82;;;;;;;18.08;100.00;101696.78;6250100;28;20079;-75
2021/07/09 10:59:05;;;;;;;24.88;11.25;;;;;;;18.30;100.00;101700.56;6249927;28;20432;-75
2021/07/09 11:02:08;;;;;;;17.65;9.70;;;;;;;18.23;100.00;101701.00;6249141;28;20057;-75
2021/07/09 11:05:09;;;;;;;14.02;8.70;;;;;;;18.21;100.00;101692.28;6248660;28;20132;-75
2021/07/09 11:08:40;;;;;;;17.10;9.50;;;;;;;18.25;100.00;101704.38;6249872;28;20060;-75
2021/07/09 11:11:44;;;;;;;17.88;9.23;;;;;;;18.16;100.00;101701.53;6249322;28;20057;-75
2021/07/09 11:14:48;;;;;;;17.55;8.75;;;;;;;18.23;100.00;101705.47;6249728;28;20061;-76
2021/07/09 11:17:51;;;;;;;13.15;8.95;;;;;;;18.12;100.00;101695.59;6250048;28;20049;-75
2021/07/09 11:20:53;;;;;;;18.30;8.77;;;;;;;18.41;100.00;101708.66;6249987;28;20049;-76
2021/07/09 11:23:54;;;;;;;13.60;7.95;;;;;;;18.52;100.00;101700.72;6249828;28;20049;-74
2021/07/09 11:26:58;;;;;;;18.52;7.95;;;;;;;18.29;100.00;101704.19;6249880;28;20520;-75
2021/07/09 11:30:01;;;;;;;15.75;7.22;;;;;;;18.22;100.00;101699.31;6290796;22;20048;-77
2021/07/09 11:33:04;;;;;;;15.63;7.50;;;;;;;18.28;100.00;101694.50;6274176;28;20524;-78
2021/07/09 11:36:19;;;;;;;10.57;5.88;;;;;;;18.47;100.00;101694.91;6274503;28;20496;-78
2021/07/09 11:39:22;;;;;;;11.32;6.60;;;;;;;18.45;100.00;101696.81;6274536;28;20049;-77
2021/07/09 11:42:25;;;;;;;10.85;5.80;;;;;;;18.62;100.00;101688.50;6274661;28;20056;-77
2021/07/09 11:45:29;;;;;;;13.25;6.00;;;;;;;18.56;100.00;101688.06;6275085;28;20041;-76
2021/07/09 11:48:32;;;;;;;11.35;5.50;;;;;;;18.67;100.00;101688.16;6275554;28;20053;-78
2021/07/09 11:51:34;;;;;;;8.65;4.90;;;;;;;18.66;100.00;101681.94;6273936;28;20413;-76
2021/07/09 11:54:38;;;;;;;11.18;5.35;;;;;;;18.87;100.00;101687.56;6273847;28;20045;-76
2021/07/09 11:57:40;;;;;;;8.50;5.07;;;;;;;18.94;96.58;101666.66;6274237;28;20049;-74
2021/07/09 12:00:42;;;;;;;7.18;4.82;;;;;;;18.87;100.00;101668.06;6267821;28;20098;-78
2021/07/09 12:03:53;;;;;;;9.57;5.13;;;;;;;19.06;100.00;101672.91;6252050;28;20057;-78
2021/07/09 12:07:20;;;;;;;8.88;4.55;;;;;;;19.19;96.02;101660.34;6258550;28;20397;-75
2021/07/09 12:10:22;;;;;;;9.43;5.03;;;;;;;19.00;100.00;101664.41;6267376;28;20049;-75
2021/07/09 12:13:24;;;;;;;9.52;5.05;;;;;;;18.95;98.81;101674.53;6273386;28;20052;-77
2021/07/09 12:16:26;;;;;;;10.32;5.25;;;;;;;18.90;100.00;101676.69;6273931;28;20057;-76
2021/07/09 12:19:29;;;;;;;7.20;4.63;;;;;;;19.01;95.97;101670.56;6273561;28;20049;-78
2021/07/09 12:22:32;;;;;;;13.10;4.97;;;;;;;18.93;95.96;101672.94;6273687;28;20048;-79
2021/07/09 12:25:36;;;;;;;13.07;5.07;;;;;;;18.88;98.88;101675.09;6272813;28;20052;-77
2021/07/09 12:28:38;;;;;;;9.15;5.22;;;;;;;18.72;98.68;101675.38;6272329;28;20052;-78
2021/07/09 12:31:39;;;;;;;7.18;4.60;;;;;;;18.72;98.61;101670.91;6273418;28;20056;-79
2021/07/09 12:34:42;;;;;;;7.85;4.30;;;;;;;18.80;98.39;101677.47;6272848;28;20045;-76
2021/07/09 12:37:44;;;;;;;10.68;4.55;;;;;;;18.94;95.25;101677.31;6273545;28;20060;-76
2021/07/09 12:40:47;;;;;;;8.73;4.97;;;;;;;19.01;93.22;101673.22;6273128;28;20059;-77
2021/07/09 12:43:50;;;;;;;8.43;5.05;;;;;;;18.85;97.27;101677.97;6274651;28;20045;-78
2021/07/09 12:46:51;;;;;;;10.40;4.97;;;;;;;19.09;93.44;101684.19;6274359;28;20056;-79
2021/07/09 12:50:16;;;;;;;11.82;5.43;;;;;;;19.06;92.36;101679.06;6273545;28;20049;-76
2021/07/09 12:53:19;;;;;;;7.13;4.40;;;;;;;19.35;87.70;101676.91;6272679;28;20048;-76
2021/07/09 12:56:22;;;;;;;7.70;4.30;;;;;;;19.28;90.71;101683.66;6273087;28;20191;-77
2021/07/09 12:59:25;;;;;;;8.05;4.20;;;;;;;19.42;85.60;101675.47;6272667;28;20056;-77
2021/07/09 13:02:28;;;;;;;5.90;3.88;;;;;;;19.22;90.67;101666.31;6273968;28;20053;-80
2021/07/09 13:05:31;;;;;;;7.90;3.88;;;;;;;19.21;89.68;101672.63;6272550;28;20057;-78
2021/07/09 13:08:32;;;;;;;10.15;4.70;;;;;;;19.09;92.95;101676.19;6272674;28;20052;-77
2021/07/09 13:11:37;;;;;;;9.48;3.53;;;;;;;19.51;83.10;101676.56;6272569;28;20052;-79
2021/07/09 13:14:51;;;;;;;7.88;3.75;;;;;;;19.24;82.59;101679.50;6264690;28;20512;-79
2021/07/09 13:18:04;;;;;;;7.40;3.72;;;;;;;19.06;83.88;101672.91;6253813;28;20103;-77
2021/07/09 13:21:11;;;;;;;8.18;3.50;;;;;;;19.04;85.83;101672.16;6258319;28;20508;-76
2021/07/09 13:24:12;;;;;;;8.82;3.92;;;;;;;18.92;88.56;101663.25;6272945;28;20416;-78
2021/07/09 13:27:24;;;;;;;6.25;3.70;;;;;;;19.10;85.12;101667.22;6272384;28;20056;-76
2021/07/09 13:30:26;;;;;;;6.43;3.58;;;;;;;19.13;84.79;101668.81;6256036;28;20057;-79
2021/07/09 13:33:28;;;;;;;7.88;3.67;;;;;;;19.04;90.84;101666.84;6249804;28;20047;-78
2021/07/09 13:36:34;;;;;;;8.52;3.70;;;;;;;19.16;90.06;101677.41;6270301;28;20056;-79
2021/07/09 13:39:36;;;;;;;8.82;3.55;;;;;;;19.38;84.66;101673.97;6254190;28;20049;-79
2021/07/09 13:42:38;;;;;;;4.28;2.85;;;;;;;19.31;89.62;101670.09;6251568;28;20056;-76
2021/07/09 13:45:40;;;;;;;7.47;3.80;;;;;;;19.62;87.15;101675.78;6262380;28;20049;-78
2021/07/09 13:48:41;;;;;;;7.05;3.30;;;;;;;19.75;82.59;101673.88;6295492;28;20024;-80